sensor_id;sensor_type;location;lat;lon;timestamp;P1;durP1;ratioP1;P2;durP2;ratioP2
6529;SDS011;3298;42.688;23.366;2022-08-18T00:01:03;4.90;;;4.60;;
6529;SDS011;3298;42.688;23.366;2022-08-18T00:03:30;5.20;;;4.63;;
6529;SDS011;3298;42.688;23.366;2022-08-18T00:05:57;4.90;;;4.40;;
6529;SDS011;3298;42.688;23.366;2022-08-18T00:08:23;4.60;;;4.27;;
6529;SDS011;3298;42.688;23.366;2022-08-18T00:10:51;4.93;;;4.33;;
6529;SDS011;3298;42.688;23.366;2022-08-18T00:13:18;4.97;;;4.50;;
6529;SDS011;3298;42.688;23.366;2022-08-18T00:15:46;7.93;;;4.70;;
6529;SDS011;3298;42.688;23.366;2022-08-18T00:18:13;5.17;;;4.60;;
6529;SDS011;3298;42.688;23.366;2022-08-18T00:20:40;5.67;;;5.07;;
6529;SDS011;3298;42.688;23.366;2022-08-18T00:23:07;4.97;;;4.57;;
6529;SDS011;3298;42.688;23.366;2022-08-18T00:25:34;5.20;;;4.90;;
6529;SDS011;3298;42.688;23.366;2022-08-18T00:28:01;5.53;;;3.60;;
6529;SDS011;3298;42.688;23.366;2022-08-18T00:30:29;4.00;;;3.60;;
6529;SDS011;3298;42.688;23.366;2022-08-18T00:32:58;4.73;;;4.03;;
6529;SDS011;3298;42.688;23.366;2022-08-18T00:35:27;5.13;;;4.73;;
6529;SDS011;3298;42.688;23.366;2022-08-18T00:37:56;3.83;;;3.63;;
6529;SDS011;3298;42.688;23.366;2022-08-18T00:40:26;4.43;;;4.03;;
6529;SDS011;3298;42.688;23.366;2022-08-18T00:42:56;4.53;;;4.20;;
6529;SDS011;3298;42.688;23.366;2022-08-18T00:45:26;4.90;;;4.60;;
6529;SDS011;3298;42.688;23.366;2022-08-18T00:47:58;4.70;;;4.30;;
6529;SDS011;3298;42.688;23.366;2022-08-18T00:50:26;4.60;;;4.33;;
6529;SDS011;3298;42.688;23.366;2022-08-18T00:52:58;4.33;;;4.07;;
6529;SDS011;3298;42.688;23.366;2022-08-18T00:55:27;4.60;;;4.20;;
6529;SDS011;3298;42.688;23.366;2022-08-18T00:57:57;4.73;;;4.33;;
6529;SDS011;3298;42.688;23.366;2022-08-18T01:00:28;5.13;;;4.63;;
6529;SDS011;3298;42.688;23.366;2022-08-18T01:02:55;5.43;;;4.47;;
6529;SDS011;3298;42.688;23.366;2022-08-18T01:05:29;5.13;;;4.67;;
6529;SDS011;3298;42.688;23.366;2022-08-18T01:08:02;6.10;;;4.30;;
6529;SDS011;3298;42.688;23.366;2022-08-18T01:10:29;4.53;;;4.17;;
6529;SDS011;3298;42.688;23.366;2022-08-18T01:12:58;6.53;;;5.77;;
6529;SDS011;3298;42.688;23.366;2022-08-18T01:15:25;4.67;;;4.27;;
6529;SDS011;3298;42.688;23.366;2022-08-18T01:17:53;4.47;;;4.17;;
6529;SDS011;3298;42.688;23.366;2022-08-18T01:20:41;4.67;;;4.37;;
6529;SDS011;3298;42.688;23.366;2022-08-18T01:23:36;4.47;;;4.17;;
6529;SDS011;3298;42.688;23.366;2022-08-18T01:26:04;6.20;;;5.57;;
6529;SDS011;3298;42.688;23.366;2022-08-18T01:28:35;5.40;;;5.00;;
6529;SDS011;3298;42.688;23.366;2022-08-18T01:31:04;7.43;;;4.90;;
6529;SDS011;3298;42.688;23.366;2022-08-18T01:33:33;7.60;;;4.53;;
6529;SDS011;3298;42.688;23.366;2022-08-18T01:36:08;4.53;;;4.13;;
6529;SDS011;3298;42.688;23.366;2022-08-18T01:38:42;4.47;;;4.20;;
6529;SDS011;3298;42.688;23.366;2022-08-18T01:41:09;5.40;;;4.63;;
6529;SDS011;3298;42.688;23.366;2022-08-18T01:43:36;5.23;;;4.73;;
6529;SDS011;3298;42.688;23.366;2022-08-18T01:46:03;6.63;;;4.67;;
6529;SDS011;3298;42.688;23.366;2022-08-18T01:48:31;4.97;;;4.63;;
6529;SDS011;3298;42.688;23.366;2022-08-18T01:50:58;5.07;;;4.40;;
6529;SDS011;3298;42.688;23.366;2022-08-18T01:53:25;5.67;;;5.17;;
6529;SDS011;3298;42.688;23.366;2022-08-18T01:55:54;7.30;;;5.23;;
6529;SDS011;3298;42.688;23.366;2022-08-18T01:58:21;4.97;;;4.67;;
6529;SDS011;3298;42.688;23.366;2022-08-18T02:00:52;6.40;;;4.50;;
6529;SDS011;3298;42.688;23.366;2022-08-18T02:03:22;5.07;;;4.67;;
6529;SDS011;3298;42.688;23.366;2022-08-18T02:05:54;5.17;;;4.83;;
6529;SDS011;3298;42.688;23.366;2022-08-18T02:08:24;4.63;;;4.37;;
6529;SDS011;3298;42.688;23.366;2022-08-18T02:10:51;4.47;;;4.07;;
6529;SDS011;3298;42.688;23.366;2022-08-18T02:13:19;4.60;;;4.30;;
6529;SDS011;3298;42.688;23.366;2022-08-18T02:15:46;5.10;;;4.63;;
6529;SDS011;3298;42.688;23.366;2022-08-18T02:18:13;5.23;;;4.70;;
6529;SDS011;3298;42.688;23.366;2022-08-18T02:20:41;4.40;;;4.10;;
6529;SDS011;3298;42.688;23.366;2022-08-18T02:23:08;5.17;;;4.57;;
6529;SDS011;3298;42.688;23.366;2022-08-18T02:25:35;5.03;;;4.53;;
6529;SDS011;3298;42.688;23.366;2022-08-18T02:28:02;4.90;;;4.50;;
6529;SDS011;3298;42.688;23.366;2022-08-18T02:30:32;8.30;;;5.13;;
6529;SDS011;3298;42.688;23.366;2022-08-18T02:33:01;9.43;;;5.17;;
6529;SDS011;3298;42.688;23.366;2022-08-18T02:35:28;10.70;;;4.50;;
6529;SDS011;3298;42.688;23.366;2022-08-18T02:37:57;5.93;;;4.87;;
6529;SDS011;3298;42.688;23.366;2022-08-18T02:40:24;5.30;;;4.80;;
6529;SDS011;3298;42.688;23.366;2022-08-18T02:42:51;6.87;;;4.67;;
6529;SDS011;3298;42.688;23.366;2022-08-18T02:45:18;5.43;;;5.13;;
6529;SDS011;3298;42.688;23.366;2022-08-18T02:47:51;5.77;;;5.30;;
6529;SDS011;3298;42.688;23.366;2022-08-18T02:50:19;5.97;;;5.57;;
6529;SDS011;3298;42.688;23.366;2022-08-18T02:52:45;6.93;;;4.80;;
6529;SDS011;3298;42.688;23.366;2022-08-18T02:55:13;8.50;;;6.23;;
6529;SDS011;3298;42.688;23.366;2022-08-18T02:57:40;7.00;;;6.10;;
6529;SDS011;3298;42.688;23.366;2022-08-18T03:00:08;8.10;;;5.80;;
6529;SDS011;3298;42.688;23.366;2022-08-18T03:02:37;7.63;;;6.60;;
6529;SDS011;3298;42.688;23.366;2022-08-18T03:05:05;6.60;;;6.00;;
6529;SDS011;3298;42.688;23.366;2022-08-18T03:07:33;7.40;;;6.43;;
6529;SDS011;3298;42.688;23.366;2022-08-18T03:09:59;6.23;;;5.73;;
6529;SDS011;3298;42.688;23.366;2022-08-18T03:12:26;5.87;;;5.30;;
6529;SDS011;3298;42.688;23.366;2022-08-18T03:14:53;5.97;;;5.00;;
6529;SDS011;3298;42.688;23.366;2022-08-18T03:17:20;7.10;;;5.57;;
6529;SDS011;3298;42.688;23.366;2022-08-18T03:19:46;6.23;;;5.73;;
6529;SDS011;3298;42.688;23.366;2022-08-18T03:22:15;7.73;;;6.23;;
6529;SDS011;3298;42.688;23.366;2022-08-18T03:24:41;8.50;;;5.40;;
6529;SDS011;3298;42.688;23.366;2022-08-18T03:27:08;7.13;;;6.40;;
6529;SDS011;3298;42.688;23.366;2022-08-18T03:29:35;6.63;;;5.83;;
6529;SDS011;3298;42.688;23.366;2022-08-18T03:32:03;7.00;;;6.50;;
6529;SDS011;3298;42.688;23.366;2022-08-18T03:34:32;12.50;;;7.00;;
6529;SDS011;3298;42.688;23.366;2022-08-18T03:36:59;10.47;;;6.70;;
6529;SDS011;3298;42.688;23.366;2022-08-18T03:39:28;7.93;;;6.37;;
6529;SDS011;3298;42.688;23.366;2022-08-18T03:41:55;6.83;;;6.23;;
6529;SDS011;3298;42.688;23.366;2022-08-18T03:44:23;6.47;;;6.00;;
6529;SDS011;3298;42.688;23.366;2022-08-18T03:46:50;6.30;;;5.90;;
6529;SDS011;3298;42.688;23.366;2022-08-18T03:49:17;7.13;;;6.53;;
6529;SDS011;3298;42.688;23.366;2022-08-18T03:51:45;9.33;;;7.10;;
6529;SDS011;3298;42.688;23.366;2022-08-18T03:54:13;6.83;;;6.33;;
6529;SDS011;3298;42.688;23.366;2022-08-18T03:56:43;6.77;;;6.00;;
6529;SDS011;3298;42.688;23.366;2022-08-18T03:59:12;7.57;;;5.87;;
6529;SDS011;3298;42.688;23.366;2022-08-18T04:01:42;5.60;;;5.03;;
6529;SDS011;3298;42.688;23.366;2022-08-18T04:04:10;6.73;;;6.33;;
6529;SDS011;3298;42.688;23.366;2022-08-18T04:06:39;7.17;;;6.23;;
6529;SDS011;3298;42.688;23.366;2022-08-18T04:09:10;7.57;;;6.87;;
6529;SDS011;3298;42.688;23.366;2022-08-18T04:11:39;7.83;;;7.33;;
6529;SDS011;3298;42.688;23.366;2022-08-18T04:14:09;8.70;;;7.50;;
6529;SDS011;3298;42.688;23.366;2022-08-18T04:16:37;8.07;;;6.53;;
6529;SDS011;3298;42.688;23.366;2022-08-18T04:19:04;10.13;;;7.17;;
6529;SDS011;3298;42.688;23.366;2022-08-18T04:21:34;7.87;;;7.30;;
6529;SDS011;3298;42.688;23.366;2022-08-18T04:24:03;7.70;;;6.93;;
6529;SDS011;3298;42.688;23.366;2022-08-18T04:26:31;7.07;;;6.57;;
6529;SDS011;3298;42.688;23.366;2022-08-18T04:29:00;8.27;;;7.57;;
6529;SDS011;3298;42.688;23.366;2022-08-18T04:31:29;7.07;;;6.67;;
6529;SDS011;3298;42.688;23.366;2022-08-18T04:33:57;8.83;;;7.93;;
6529;SDS011;3298;42.688;23.366;2022-08-18T04:36:24;7.77;;;7.27;;
6529;SDS011;3298;42.688;23.366;2022-08-18T04:38:52;8.63;;;7.77;;
6529;SDS011;3298;42.688;23.366;2022-08-18T04:41:19;6.90;;;6.47;;
6529;SDS011;3298;42.688;23.366;2022-08-18T04:43:51;7.27;;;6.77;;
6529;SDS011;3298;42.688;23.366;2022-08-18T04:46:19;7.17;;;6.67;;
6529;SDS011;3298;42.688;23.366;2022-08-18T04:48:47;7.43;;;6.87;;
6529;SDS011;3298;42.688;23.366;2022-08-18T04:51:16;7.47;;;6.67;;
6529;SDS011;3298;42.688;23.366;2022-08-18T04:53:44;7.57;;;7.00;;
6529;SDS011;3298;42.688;23.366;2022-08-18T04:56:17;7.50;;;6.83;;
6529;SDS011;3298;42.688;23.366;2022-08-18T04:58:47;12.27;;;6.93;;
6529;SDS011;3298;42.688;23.366;2022-08-18T05:01:15;9.37;;;7.60;;
6529;SDS011;3298;42.688;23.366;2022-08-18T05:03:42;10.67;;;6.03;;
6529;SDS011;3298;42.688;23.366;2022-08-18T05:06:10;6.27;;;5.67;;
6529;SDS011;3298;42.688;23.366;2022-08-18T05:08:37;6.77;;;5.80;;
6529;SDS011;3298;42.688;23.366;2022-08-18T05:11:04;7.03;;;6.00;;
6529;SDS011;3298;42.688;23.366;2022-08-18T05:13:31;7.07;;;6.60;;
6529;SDS011;3298;42.688;23.366;2022-08-18T05:15:59;6.30;;;5.77;;
6529;SDS011;3298;42.688;23.366;2022-08-18T05:18:27;6.20;;;5.70;;
6529;SDS011;3298;42.688;23.366;2022-08-18T05:20:55;6.57;;;5.47;;
6529;SDS011;3298;42.688;23.366;2022-08-18T05:23:24;5.47;;;4.97;;
6529;SDS011;3298;42.688;23.366;2022-08-18T05:25:55;7.03;;;5.97;;
6529;SDS011;3298;42.688;23.366;2022-08-18T05:28:23;6.18;;;5.50;;
6529;SDS011;3298;42.688;23.366;2022-08-18T05:30:50;4.97;;;4.68;;
6529;SDS011;3298;42.688;23.366;2022-08-18T05:33:17;6.20;;;5.13;;
6529;SDS011;3298;42.688;23.366;2022-08-18T05:35:45;6.60;;;4.72;;
6529;SDS011;3298;42.688;23.366;2022-08-18T05:38:19;7.00;;;5.00;;
6529;SDS011;3298;42.688;23.366;2022-08-18T05:41:06;5.57;;;5.18;;
6529;SDS011;3298;42.688;23.366;2022-08-18T05:43:36;6.57;;;4.88;;
6529;SDS011;3298;42.688;23.366;2022-08-18T05:46:04;12.38;;;5.68;;
6529;SDS011;3298;42.688;23.366;2022-08-18T05:48:33;6.68;;;4.55;;
6529;SDS011;3298;42.688;23.366;2022-08-18T05:51:02;5.60;;;5.13;;
6529;SDS011;3298;42.688;23.366;2022-08-18T05:53:39;6.03;;;5.32;;
6529;SDS011;3298;42.688;23.366;2022-08-18T05:56:25;5.47;;;4.97;;
6529;SDS011;3298;42.688;23.366;2022-08-18T05:59:11;6.60;;;5.93;;
6529;SDS011;3298;42.688;23.366;2022-08-18T06:01:44;11.67;;;5.57;;
6529;SDS011;3298;42.688;23.366;2022-08-18T06:04:19;7.07;;;6.37;;
6529;SDS011;3298;42.688;23.366;2022-08-18T06:06:52;5.87;;;5.30;;
6529;SDS011;3298;42.688;23.366;2022-08-18T06:09:25;7.03;;;5.90;;
6529;SDS011;3298;42.688;23.366;2022-08-18T06:12:02;6.73;;;6.13;;
6529;SDS011;3298;42.688;23.366;2022-08-18T06:14:36;6.67;;;6.07;;
6529;SDS011;3298;42.688;23.366;2022-08-18T06:17:09;6.77;;;5.90;;
6529;SDS011;3298;42.688;23.366;2022-08-18T06:19:47;8.47;;;6.30;;
6529;SDS011;3298;42.688;23.366;2022-08-18T06:22:25;8.93;;;5.93;;
6529;SDS011;3298;42.688;23.366;2022-08-18T06:25:03;8.27;;;6.03;;
6529;SDS011;3298;42.688;23.366;2022-08-18T06:27:40;7.30;;;6.43;;
6529;SDS011;3298;42.688;23.366;2022-08-18T06:30:23;11.87;;;6.47;;
6529;SDS011;3298;42.688;23.366;2022-08-18T06:33:07;9.03;;;6.20;;
6529;SDS011;3298;42.688;23.366;2022-08-18T06:35:43;6.00;;;5.50;;
6529;SDS011;3298;42.688;23.366;2022-08-18T06:38:20;7.13;;;5.33;;
6529;SDS011;3298;42.688;23.366;2022-08-18T06:41:10;9.07;;;5.50;;
6529;SDS011;3298;42.688;23.366;2022-08-18T06:43:43;9.30;;;6.17;;
6529;SDS011;3298;42.688;23.366;2022-08-18T06:46:20;10.77;;;5.83;;
6529;SDS011;3298;42.688;23.366;2022-08-18T06:48:53;6.23;;;5.73;;
6529;SDS011;3298;42.688;23.366;2022-08-18T06:51:26;6.50;;;5.47;;
6529;SDS011;3298;42.688;23.366;2022-08-18T06:53:55;7.57;;;7.00;;
6529;SDS011;3298;42.688;23.366;2022-08-18T06:56:26;10.13;;;5.43;;
6529;SDS011;3298;42.688;23.366;2022-08-18T06:59:12;7.53;;;6.30;;
6529;SDS011;3298;42.688;23.366;2022-08-18T07:01:41;6.63;;;5.53;;
6529;SDS011;3298;42.688;23.366;2022-08-18T07:04:11;9.03;;;5.27;;
6529;SDS011;3298;42.688;23.366;2022-08-18T07:06:56;8.40;;;5.63;;
6529;SDS011;3298;42.688;23.366;2022-08-18T07:09:23;6.50;;;5.47;;
6529;SDS011;3298;42.688;23.366;2022-08-18T07:12:00;6.87;;;5.43;;
6529;SDS011;3298;42.688;23.366;2022-08-18T07:14:29;6.93;;;4.77;;
6529;SDS011;3298;42.688;23.366;2022-08-18T07:17:04;6.10;;;5.57;;
6529;SDS011;3298;42.688;23.366;2022-08-18T07:19:32;7.40;;;5.20;;
6529;SDS011;3298;42.688;23.366;2022-08-18T07:22:00;5.23;;;4.83;;
6529;SDS011;3298;42.688;23.366;2022-08-18T07:24:30;5.80;;;5.40;;
6529;SDS011;3298;42.688;23.366;2022-08-18T07:27:02;7.40;;;5.13;;
6529;SDS011;3298;42.688;23.366;2022-08-18T07:29:32;5.20;;;4.80;;
6529;SDS011;3298;42.688;23.366;2022-08-18T07:32:02;8.20;;;4.57;;
6529;SDS011;3298;42.688;23.366;2022-08-18T07:34:35;8.73;;;5.57;;
6529;SDS011;3298;42.688;23.366;2022-08-18T07:37:07;4.43;;;3.97;;
6529;SDS011;3298;42.688;23.366;2022-08-18T07:39:39;5.60;;;5.03;;
6529;SDS011;3298;42.688;23.366;2022-08-18T07:42:13;5.20;;;4.20;;
6529;SDS011;3298;42.688;23.366;2022-08-18T07:44:44;8.33;;;4.73;;
6529;SDS011;3298;42.688;23.366;2022-08-18T07:47:17;5.10;;;4.70;;
6529;SDS011;3298;42.688;23.366;2022-08-18T07:49:47;5.33;;;4.90;;
6529;SDS011;3298;42.688;23.366;2022-08-18T07:52:16;7.53;;;5.07;;
6529;SDS011;3298;42.688;23.366;2022-08-18T07:54:48;5.00;;;4.23;;
6529;SDS011;3298;42.688;23.366;2022-08-18T07:57:25;5.57;;;5.17;;
6529;SDS011;3298;42.688;23.366;2022-08-18T08:00:03;9.23;;;4.43;;
6529;SDS011;3298;42.688;23.366;2022-08-18T08:02:38;7.00;;;3.90;;
6529;SDS011;3298;42.688;23.366;2022-08-18T08:05:14;5.33;;;3.63;;
6529;SDS011;3298;42.688;23.366;2022-08-18T08:07:48;3.87;;;3.57;;
6529;SDS011;3298;42.688;23.366;2022-08-18T08:10:26;3.90;;;3.60;;
6529;SDS011;3298;42.688;23.366;2022-08-18T08:13:02;3.40;;;3.20;;
6529;SDS011;3298;42.688;23.366;2022-08-18T08:15:41;4.80;;;4.30;;
6529;SDS011;3298;42.688;23.366;2022-08-18T08:18:15;8.77;;;3.63;;
6529;SDS011;3298;42.688;23.366;2022-08-18T08:20:50;4.17;;;3.57;;
6529;SDS011;3298;42.688;23.366;2022-08-18T08:23:23;3.80;;;3.60;;
6529;SDS011;3298;42.688;23.366;2022-08-18T08:25:59;6.37;;;3.57;;
6529;SDS011;3298;42.688;23.366;2022-08-18T08:28:45;3.67;;;3.33;;
6529;SDS011;3298;42.688;23.366;2022-08-18T08:31:21;3.93;;;3.40;;
6529;SDS011;3298;42.688;23.366;2022-08-18T08:34:02;4.53;;;3.10;;
6529;SDS011;3298;42.688;23.366;2022-08-18T08:36:35;6.60;;;3.90;;
6529;SDS011;3298;42.688;23.366;2022-08-18T08:39:05;3.83;;;2.90;;
6529;SDS011;3298;42.688;23.366;2022-08-18T08:41:39;4.70;;;3.20;;
6529;SDS011;3298;42.688;23.366;2022-08-18T08:44:12;20.60;;;5.00;;
6529;SDS011;3298;42.688;23.366;2022-08-18T08:46:43;4.00;;;3.17;;
6529;SDS011;3298;42.688;23.366;2022-08-18T08:49:20;5.03;;;3.10;;
6529;SDS011;3298;42.688;23.366;2022-08-18T08:51:53;3.60;;;3.27;;
6529;SDS011;3298;42.688;23.366;2022-08-18T08:54:24;3.78;;;2.97;;
6529;SDS011;3298;42.688;23.366;2022-08-18T08:56:55;5.40;;;3.00;;
6529;SDS011;3298;42.688;23.366;2022-08-18T08:59:27;3.30;;;3.10;;
6529;SDS011;3298;42.688;23.366;2022-08-18T09:01:56;2.50;;;2.20;;
6529;SDS011;3298;42.688;23.366;2022-08-18T09:04:39;3.47;;;2.70;;
6529;SDS011;3298;42.688;23.366;2022-08-18T09:07:18;3.17;;;2.85;;
6529;SDS011;3298;42.688;23.366;2022-08-18T09:09:56;14.70;;;3.10;;
6529;SDS011;3298;42.688;23.366;2022-08-18T09:12:44;7.07;;;2.50;;
6529;SDS011;3298;42.688;23.366;2022-08-18T09:15:36;4.32;;;2.63;;
6529;SDS011;3298;42.688;23.366;2022-08-18T09:21:16;3.63;;;3.33;;
6529;SDS011;3298;42.688;23.366;2022-08-18T09:23:52;3.47;;;2.40;;
6529;SDS011;3298;42.688;23.366;2022-08-18T09:26:37;3.20;;;2.63;;
6529;SDS011;3298;42.688;23.366;2022-08-18T09:29:14;3.17;;;2.60;;
6529;SDS011;3298;42.688;23.366;2022-08-18T09:31:47;2.93;;;2.73;;
6529;SDS011;3298;42.688;23.366;2022-08-18T09:34:21;2.38;;;2.28;;
6529;SDS011;3298;42.688;23.366;2022-08-18T09:37:00;2.67;;;2.58;;
6529;SDS011;3298;42.688;23.366;2022-08-18T09:39:34;3.00;;;2.88;;
6529;SDS011;3298;42.688;23.366;2022-08-18T09:42:28;2.83;;;2.60;;
6529;SDS011;3298;42.688;23.366;2022-08-18T09:45:04;9.07;;;4.90;;
6529;SDS011;3298;42.688;23.366;2022-08-18T09:47:57;2.97;;;2.80;;
6529;SDS011;3298;42.688;23.366;2022-08-18T10:05:35;4.18;;;2.83;;
6529;SDS011;3298;42.688;23.366;2022-08-18T10:08:24;3.08;;;2.55;;
6529;SDS011;3298;42.688;23.366;2022-08-18T10:11:05;4.25;;;2.90;;
6529;SDS011;3298;42.688;23.366;2022-08-18T10:13:58;5.65;;;3.03;;
6529;SDS011;3298;42.688;23.366;2022-08-18T10:16:34;20.38;;;2.60;;
6529;SDS011;3298;42.688;23.366;2022-08-18T10:19:12;5.28;;;3.13;;
6529;SDS011;3298;42.688;23.366;2022-08-18T10:22:02;3.50;;;2.83;;
6529;SDS011;3298;42.688;23.366;2022-08-18T10:24:32;7.00;;;2.50;;
6529;SDS011;3298;42.688;23.366;2022-08-18T10:27:03;4.25;;;2.60;;
6529;SDS011;3298;42.688;23.366;2022-08-18T10:29:46;2.42;;;2.22;;
6529;SDS011;3298;42.688;23.366;2022-08-18T10:32:22;2.70;;;2.60;;
6529;SDS011;3298;42.688;23.366;2022-08-18T10:35:05;3.00;;;2.80;;
6529;SDS011;3298;42.688;23.366;2022-08-18T10:38:11;5.75;;;2.45;;
6529;SDS011;3298;42.688;23.366;2022-08-18T10:40:41;2.70;;;2.50;;
6529;SDS011;3298;42.688;23.366;2022-08-18T10:43:09;2.72;;;2.63;;
6529;SDS011;3298;42.688;23.366;2022-08-18T10:45:43;1.95;;;1.85;;
6529;SDS011;3298;42.688;23.366;2022-08-18T10:48:14;5.63;;;2.38;;
6529;SDS011;3298;42.688;23.366;2022-08-18T10:50:49;2.65;;;2.45;;
6529;SDS011;3298;42.688;23.366;2022-08-18T10:53:22;5.38;;;2.55;;
6529;SDS011;3298;42.688;23.366;2022-08-18T10:55:58;3.47;;;2.97;;
6529;SDS011;3298;42.688;23.366;2022-08-18T11:01:40;2.47;;;2.38;;
6529;SDS011;3298;42.688;23.366;2022-08-18T11:04:27;3.10;;;2.90;;
6529;SDS011;3298;42.688;23.366;2022-08-18T11:07:04;2.30;;;2.20;;
6529;SDS011;3298;42.688;23.366;2022-08-18T11:09:35;3.42;;;2.17;;
6529;SDS011;3298;42.688;23.366;2022-08-18T11:12:04;9.13;;;2.60;;
6529;SDS011;3298;42.688;23.366;2022-08-18T11:17:30;2.20;;;2.10;;
6529;SDS011;3298;42.688;23.366;2022-08-18T11:20:05;2.75;;;2.55;;
6529;SDS011;3298;42.688;23.366;2022-08-18T11:22:35;2.50;;;2.40;;
6529;SDS011;3298;42.688;23.366;2022-08-18T11:25:17;3.20;;;2.65;;
6529;SDS011;3298;42.688;23.366;2022-08-18T11:27:48;2.53;;;2.42;;
6529;SDS011;3298;42.688;23.366;2022-08-18T11:30:15;2.58;;;2.38;;
6529;SDS011;3298;42.688;23.366;2022-08-18T11:32:42;2.60;;;2.30;;
6529;SDS011;3298;42.688;23.366;2022-08-18T11:35:11;3.10;;;2.90;;
6529;SDS011;3298;42.688;23.366;2022-08-18T11:37:42;2.78;;;2.67;;
6529;SDS011;3298;42.688;23.366;2022-08-18T11:40:21;4.70;;;2.78;;
6529;SDS011;3298;42.688;23.366;2022-08-18T11:42:57;2.10;;;2.00;;
6529;SDS011;3298;42.688;23.366;2022-08-18T11:45:28;2.63;;;2.50;;
6529;SDS011;3298;42.688;23.366;2022-08-18T11:47:59;2.92;;;2.35;;
6529;SDS011;3298;42.688;23.366;2022-08-18T11:50:27;2.70;;;2.50;;
6529;SDS011;3298;42.688;23.366;2022-08-18T11:52:55;2.42;;;2.30;;
6529;SDS011;3298;42.688;23.366;2022-08-18T11:55:39;4.47;;;2.72;;
6529;SDS011;3298;42.688;23.366;2022-08-18T11:58:06;2.97;;;2.78;;
6529;SDS011;3298;42.688;23.366;2022-08-18T12:00:41;2.90;;;2.70;;
6529;SDS011;3298;42.688;23.366;2022-08-18T12:03:21;2.67;;;2.45;;
6529;SDS011;3298;42.688;23.366;2022-08-18T12:05:56;5.97;;;2.58;;
6529;SDS011;3298;42.688;23.366;2022-08-18T12:08:30;2.17;;;2.08;;
6529;SDS011;3298;42.688;23.366;2022-08-18T12:11:04;2.30;;;2.20;;
6529;SDS011;3298;42.688;23.366;2022-08-18T12:13:40;2.40;;;2.30;;
6529;SDS011;3298;42.688;23.366;2022-08-18T12:16:11;5.88;;;2.60;;
6529;SDS011;3298;42.688;23.366;2022-08-18T12:18:41;2.70;;;2.60;;
6529;SDS011;3298;42.688;23.366;2022-08-18T12:21:08;3.53;;;2.28;;
6529;SDS011;3298;42.688;23.366;2022-08-18T12:23:36;2.97;;;2.05;;
6529;SDS011;3298;42.688;23.366;2022-08-18T12:26:08;2.83;;;2.63;;
6529;SDS011;3298;42.688;23.366;2022-08-18T12:28:35;2.35;;;2.15;;
6529;SDS011;3298;42.688;23.366;2022-08-18T12:31:03;3.28;;;2.08;;
6529;SDS011;3298;42.688;23.366;2022-08-18T12:33:31;2.83;;;2.63;;
6529;SDS011;3298;42.688;23.366;2022-08-18T12:35:58;2.42;;;2.33;;
6529;SDS011;3298;42.688;23.366;2022-08-18T12:38:25;3.67;;;2.38;;
6529;SDS011;3298;42.688;23.366;2022-08-18T12:40:52;2.88;;;2.60;;
6529;SDS011;3298;42.688;23.366;2022-08-18T12:43:20;2.38;;;2.28;;
6529;SDS011;3298;42.688;23.366;2022-08-18T12:45:47;3.20;;;2.53;;
6529;SDS011;3298;42.688;23.366;2022-08-18T12:48:14;2.40;;;2.30;;
6529;SDS011;3298;42.688;23.366;2022-08-18T12:50:41;2.58;;;2.47;;
6529;SDS011;3298;42.688;23.366;2022-08-18T12:53:08;4.53;;;2.40;;
6529;SDS011;3298;42.688;23.366;2022-08-18T12:55:36;2.25;;;2.15;;
6529;SDS011;3298;42.688;23.366;2022-08-18T12:58:06;2.90;;;2.75;;
6529;SDS011;3298;42.688;23.366;2022-08-18T13:00:34;2.72;;;2.63;;
6529;SDS011;3298;42.688;23.366;2022-08-18T13:03:03;2.70;;;2.50;;
6529;SDS011;3298;42.688;23.366;2022-08-18T13:05:30;2.83;;;2.72;;
6529;SDS011;3298;42.688;23.366;2022-08-18T13:07:57;2.72;;;2.63;;
6529;SDS011;3298;42.688;23.366;2022-08-18T13:10:27;3.00;;;2.80;;
6529;SDS011;3298;42.688;23.366;2022-08-18T13:12:54;2.35;;;2.20;;
6529;SDS011;3298;42.688;23.366;2022-08-18T13:15:21;2.13;;;2.03;;
6529;SDS011;3298;42.688;23.366;2022-08-18T13:17:49;4.95;;;2.63;;
6529;SDS011;3298;42.688;23.366;2022-08-18T13:20:16;2.33;;;2.13;;
6529;SDS011;3298;42.688;23.366;2022-08-18T13:22:43;2.58;;;2.20;;
6529;SDS011;3298;42.688;23.366;2022-08-18T13:25:11;2.92;;;2.67;;
6529;SDS011;3298;42.688;23.366;2022-08-18T13:27:39;4.95;;;2.30;;
6529;SDS011;3298;42.688;23.366;2022-08-18T13:30:07;2.70;;;2.50;;
6529;SDS011;3298;42.688;23.366;2022-08-18T13:32:36;2.55;;;2.45;;
6529;SDS011;3298;42.688;23.366;2022-08-18T13:35:07;2.83;;;2.72;;
6529;SDS011;3298;42.688;23.366;2022-08-18T13:37:35;2.70;;;2.50;;
6529;SDS011;3298;42.688;23.366;2022-08-18T13:40:02;2.30;;;2.20;;
6529;SDS011;3298;42.688;23.366;2022-08-18T13:42:30;2.55;;;2.45;;
6529;SDS011;3298;42.688;23.366;2022-08-18T13:45:07;4.13;;;2.55;;
6529;SDS011;3298;42.688;23.366;2022-08-18T13:47:38;2.95;;;2.55;;
6529;SDS011;3298;42.688;23.366;2022-08-18T13:50:08;2.40;;;2.30;;
6529;SDS011;3298;42.688;23.366;2022-08-18T13:52:35;3.75;;;2.75;;
6529;SDS011;3298;42.688;23.366;2022-08-18T13:55:03;2.60;;;2.50;;
6529;SDS011;3298;42.688;23.366;2022-08-18T13:57:31;2.38;;;2.28;;
6529;SDS011;3298;42.688;23.366;2022-08-18T13:59:57;2.75;;;2.65;;
6529;SDS011;3298;42.688;23.366;2022-08-18T14:02:24;3.10;;;2.88;;
6529;SDS011;3298;42.688;23.366;2022-08-18T14:04:51;2.50;;;2.40;;
6529;SDS011;3298;42.688;23.366;2022-08-18T14:07:21;2.33;;;2.22;;
6529;SDS011;3298;42.688;23.366;2022-08-18T14:09:48;2.53;;;2.35;;
6529;SDS011;3298;42.688;23.366;2022-08-18T14:12:16;2.85;;;2.63;;
6529;SDS011;3298;42.688;23.366;2022-08-18T14:14:45;2.78;;;2.67;;
6529;SDS011;3298;42.688;23.366;2022-08-18T14:17:11;3.08;;;2.63;;
6529;SDS011;3298;42.688;23.366;2022-08-18T14:19:38;2.45;;;2.35;;
6529;SDS011;3298;42.688;23.366;2022-08-18T14:22:24;6.47;;;2.75;;
6529;SDS011;3298;42.688;23.366;2022-08-18T14:25:08;3.25;;;2.22;;
6529;SDS011;3298;42.688;23.366;2022-08-18T14:27:52;2.00;;;1.90;;
6529;SDS011;3298;42.688;23.366;2022-08-18T14:30:19;2.95;;;2.53;;
6529;SDS011;3298;42.688;23.366;2022-08-18T14:32:46;2.25;;;2.15;;
6529;SDS011;3298;42.688;23.366;2022-08-18T14:35:13;2.60;;;2.50;;
6529;SDS011;3298;42.688;23.366;2022-08-18T14:37:42;2.47;;;2.28;;
6529;SDS011;3298;42.688;23.366;2022-08-18T14:40:09;2.20;;;2.10;;
6529;SDS011;3298;42.688;23.366;2022-08-18T14:42:37;2.88;;;2.53;;
6529;SDS011;3298;42.688;23.366;2022-08-18T14:45:05;2.95;;;2.80;;
6529;SDS011;3298;42.688;23.366;2022-08-18T14:47:33;2.92;;;2.83;;
6529;SDS011;3298;42.688;23.366;2022-08-18T14:49:59;4.80;;;2.30;;
6529;SDS011;3298;42.688;23.366;2022-08-18T14:52:27;2.92;;;2.72;;
6529;SDS011;3298;42.688;23.366;2022-08-18T14:54:55;2.97;;;2.75;;
6529;SDS011;3298;42.688;23.366;2022-08-18T14:57:22;2.55;;;2.45;;
6529;SDS011;3298;42.688;23.366;2022-08-18T14:59:50;2.72;;;2.53;;
6529;SDS011;3298;42.688;23.366;2022-08-18T15:02:17;3.40;;;2.97;;
6529;SDS011;3298;42.688;23.366;2022-08-18T15:04:44;3.08;;;2.95;;
6529;SDS011;3298;42.688;23.366;2022-08-18T15:07:10;3.05;;;2.95;;
6529;SDS011;3298;42.688;23.366;2022-08-18T15:09:37;4.60;;;2.55;;
6529;SDS011;3298;42.688;23.366;2022-08-18T15:12:06;3.53;;;2.70;;
6529;SDS011;3298;42.688;23.366;2022-08-18T15:14:33;2.38;;;2.28;;
6529;SDS011;3298;42.688;23.366;2022-08-18T15:17:01;2.85;;;2.75;;
6529;SDS011;3298;42.688;23.366;2022-08-18T15:19:30;2.60;;;2.40;;
6529;SDS011;3298;42.688;23.366;2022-08-18T15:21:57;3.42;;;3.10;;
6529;SDS011;3298;42.688;23.366;2022-08-18T15:24:42;3.00;;;2.90;;
6529;SDS011;3298;42.688;23.366;2022-08-18T15:27:31;2.72;;;2.63;;
6529;SDS011;3298;42.688;23.366;2022-08-18T15:30:01;3.47;;;3.25;;
6529;SDS011;3298;42.688;23.366;2022-08-18T15:32:29;3.10;;;2.95;;
6529;SDS011;3298;42.688;23.366;2022-08-18T15:34:56;3.13;;;2.80;;
6529;SDS011;3298;42.688;23.366;2022-08-18T15:37:23;2.88;;;2.70;;
6529;SDS011;3298;42.688;23.366;2022-08-18T15:40:00;3.08;;;2.88;;
6529;SDS011;3298;42.688;23.366;2022-08-18T15:42:36;3.33;;;3.22;;
6529;SDS011;3298;42.688;23.366;2022-08-18T15:45:07;3.15;;;2.95;;
6529;SDS011;3298;42.688;23.366;2022-08-18T15:47:35;3.10;;;2.80;;
6529;SDS011;3298;42.688;23.366;2022-08-18T15:50:04;2.90;;;2.80;;